createdAt,value
2019-05-16T00:01:09.401Z,85.20
2019-05-16T00:03:38.875Z,84.80
2019-05-16T00:06:08.606Z,84.40
2019-05-16T00:08:38.837Z,84.30
2019-05-16T00:11:08.758Z,84.40
2019-05-16T00:13:38.430Z,83.80
2019-05-16T00:16:08.028Z,83.80
2019-05-16T00:18:38.806Z,84.20
2019-05-16T00:21:08.804Z,83.90
2019-05-16T00:23:38.171Z,83.30
2019-05-16T00:26:07.849Z,83.30
2019-05-16T00:28:38.021Z,83.90
2019-05-16T00:31:08.603Z,84.40
2019-05-16T00:33:38.149Z,84.60
2019-05-16T00:36:09.272Z,85.10
2019-05-16T00:38:38.526Z,84.90
2019-05-16T00:41:08.497Z,84.80
2019-05-16T00:43:38.044Z,85.00
2019-05-16T00:46:08.204Z,85.30
2019-05-16T00:48:38.166Z,85.50
2019-05-16T00:51:07.953Z,85.50
2019-05-16T00:53:38.222Z,86.00
2019-05-16T00:56:08.073Z,86.80
2019-05-16T00:58:38.518Z,86.10
2019-05-16T01:01:08.551Z,86.60
2019-05-16T01:03:38.117Z,87.30
2019-05-16T01:06:16.626Z,87.70
2019-05-16T01:08:38.633Z,88.20
2019-05-16T01:11:08.221Z,88.60
2019-05-16T01:13:38.070Z,89.00
2019-05-16T01:16:08.613Z,89.20
2019-05-16T01:18:38.158Z,89.80
2019-05-16T01:21:07.937Z,90.20
2019-05-16T01:23:38.851Z,90.50
2019-05-16T01:26:08.253Z,90.60
2019-05-16T01:28:37.848Z,90.70
2019-05-16T01:31:08.589Z,90.80
2019-05-16T01:33:38.515Z,91.00
2019-05-16T01:36:08.991Z,91.10
2019-05-16T01:38:38.973Z,91.10
2019-05-16T01:41:08.846Z,91.30
2019-05-16T01:43:38.211Z,91.50
2019-05-16T01:46:08.402Z,91.80
2019-05-16T01:48:38.239Z,92.00
2019-05-16T01:51:07.845Z,92.40
2019-05-16T01:53:39.329Z,92.70
2019-05-16T01:56:08.639Z,92.90
2019-05-16T01:58:38.313Z,93.20
2019-05-16T02:01:13.088Z,93.50
2019-05-16T02:03:38.806Z,93.80
2019-05-16T02:06:08.839Z,94.00
2019-05-16T02:08:38.245Z,94.00
2019-05-16T02:11:08.515Z,94.20
2019-05-16T02:13:39.052Z,94.30
2019-05-16T02:16:08.654Z,94.60
2019-05-16T02:18:38.287Z,94.60
2019-05-16T02:21:07.969Z,94.80
2019-05-16T02:23:38.215Z,95.00
2019-05-16T02:26:07.999Z,95.30
2019-05-16T02:28:40.917Z,95.60
2019-05-16T02:31:11.964Z,95.90
2019-05-16T02:33:40.589Z,96.10
2019-05-16T02:36:10.993Z,96.40
2019-05-16T02:38:42.281Z,96.60
2019-05-16T02:41:11.495Z,96.90
2019-05-16T02:43:41.999Z,97.00
2019-05-16T02:46:12.094Z,97.20
2019-05-16T02:48:41.970Z,97.40
2019-05-16T02:51:11.419Z,97.40
2019-05-16T02:53:41.651Z,97.40
2019-05-16T02:56:12.154Z,97.40
2019-05-16T02:58:44.866Z,97.40
2019-05-16T03:01:12.676Z,97.40
2019-05-16T03:03:44.069Z,97.50
2019-05-16T03:06:14.252Z,97.60
2019-05-16T03:08:44.028Z,97.60
2019-05-16T03:11:13.609Z,97.70
2019-05-16T03:13:44.791Z,97.90
2019-05-16T03:16:14.166Z,97.80
2019-05-16T03:18:43.823Z,97.90
2019-05-16T03:21:13.291Z,97.90
2019-05-16T03:23:42.599Z,97.80
2019-05-16T03:26:12.080Z,97.80
2019-05-16T03:28:41.593Z,98.00
2019-05-16T03:31:15.034Z,97.90
2019-05-16T03:33:50.264Z,97.90
2019-05-16T03:36:14.639Z,97.80
2019-05-16T03:38:43.961Z,97.80
2019-05-16T03:41:13.349Z,97.70
2019-05-16T03:43:42.667Z,97.60
2019-05-16T03:46:12.189Z,97.40
2019-05-16T03:48:41.598Z,97.50
2019-05-16T03:51:11.558Z,97.50
2019-05-16T03:53:40.851Z,97.40
2019-05-16T03:56:11.185Z,97.50
2019-05-16T03:58:41.644Z,97.60
2019-05-16T04:01:11.668Z,97.50
2019-05-16T04:03:41.650Z,97.50
2019-05-16T04:06:12.006Z,97.50
2019-05-16T04:08:41.880Z,97.30
2019-05-16T04:11:11.766Z,97.40
2019-05-16T04:13:41.602Z,97.40
2019-05-16T04:16:11.803Z,97.30
2019-05-16T04:18:42.183Z,97.30
2019-05-16T04:21:11.994Z,97.30
2019-05-16T04:23:42.243Z,97.20
2019-05-16T04:26:11.784Z,97.20
2019-05-16T04:28:41.546Z,97.30
2019-05-16T04:31:11.235Z,97.50
2019-05-16T04:33:41.595Z,97.50
2019-05-16T04:36:11.324Z,97.70
2019-05-16T04:38:46.177Z,97.00
2019-05-16T04:41:11.862Z,96.90
2019-05-16T04:43:41.757Z,96.80
2019-05-16T04:46:11.819Z,96.90
2019-05-16T04:48:41.935Z,97.00
2019-05-16T04:51:11.233Z,96.90
2019-05-16T04:53:42.556Z,96.60
2019-05-16T04:56:11.412Z,96.50
2019-05-16T04:58:41.148Z,96.50
2019-05-16T05:01:11.230Z,96.30
2019-05-16T05:03:45.868Z,96.50
2019-05-16T05:06:11.796Z,96.10
2019-05-16T05:08:53.954Z,96.20
2019-05-16T05:11:12.140Z,96.20
2019-05-16T05:13:41.483Z,96.10
2019-05-16T05:16:10.859Z,95.80
2019-05-16T05:18:40.860Z,95.70
2019-05-16T05:21:11.644Z,95.70
2019-05-16T05:23:41.102Z,95.70
2019-05-16T05:26:10.772Z,95.70
2019-05-16T05:28:40.358Z,95.60
2019-05-16T05:31:10.809Z,95.30
2019-05-16T05:33:41.628Z,95.30
2019-05-16T05:36:12.375Z,95.40
2019-05-16T05:38:41.919Z,95.20
2019-05-16T05:41:11.165Z,95.00
2019-05-16T05:43:40.531Z,94.70
2019-05-16T05:46:11.140Z,94.50
2019-05-16T05:48:41.185Z,94.40
2019-05-16T05:51:11.341Z,94.10
2019-05-16T05:53:40.915Z,94.10
2019-05-16T05:56:11.246Z,94.10
2019-05-16T05:58:41.101Z,94.00
2019-05-16T06:01:11.074Z,93.70
2019-05-16T06:03:40.601Z,93.70
2019-05-16T06:06:10.531Z,93.60
2019-05-16T06:08:40.853Z,93.50
2019-05-16T06:11:10.372Z,93.50
2019-05-16T06:13:40.433Z,93.20
2019-05-16T06:16:10.746Z,93.00
2019-05-16T06:18:40.342Z,93.00
2019-05-16T06:21:11.457Z,92.70
2019-05-16T06:23:40.528Z,92.60
2019-05-16T06:26:12.256Z,92.40
2019-05-16T06:28:41.431Z,92.50
2019-05-16T06:31:13.981Z,92.10
2019-05-16T06:33:42.165Z,92.00
2019-05-16T06:36:11.517Z,92.00
2019-05-16T06:38:40.785Z,91.50
2019-05-16T06:41:10.772Z,91.30
2019-05-16T06:43:40.168Z,91.40
2019-05-16T06:46:11.044Z,91.20
2019-05-16T06:48:40.900Z,90.90
2019-05-16T06:51:10.842Z,90.80
2019-05-16T06:53:40.542Z,90.70
2019-05-16T06:56:10.469Z,90.40
2019-05-16T06:58:47.632Z,90.30
2019-05-16T07:01:10.937Z,89.80
2019-05-16T07:03:40.358Z,89.00
2019-05-16T07:06:18.017Z,89.50
2019-05-16T07:08:40.875Z,88.70
2019-05-16T07:11:10.666Z,88.50
2019-05-16T07:13:40.641Z,88.20
2019-05-16T07:16:10.038Z,87.10
2019-05-16T07:18:40.180Z,87.30
2019-05-16T07:21:10.953Z,86.20
2019-05-16T07:23:40.700Z,85.50
2019-05-16T07:26:10.152Z,84.30
2019-05-16T07:28:40.605Z,85.30
2019-05-16T07:31:17.485Z,85.20
2019-05-16T07:33:41.219Z,85.80
2019-05-16T07:36:10.607Z,86.40
2019-05-16T07:38:40.136Z,85.50
2019-05-16T07:41:11.030Z,84.60
2019-05-16T07:43:40.691Z,84.30
2019-05-16T07:46:12.415Z,83.60
2019-05-16T07:48:41.860Z,82.30
2019-05-16T07:51:11.362Z,81.60
2019-05-16T07:53:40.917Z,82.70
2019-05-16T07:56:10.717Z,82.10
2019-05-16T07:58:41.316Z,81.20
2019-05-16T08:01:12.451Z,81.60
2019-05-16T08:03:44.249Z,81.30
2019-05-16T08:06:12.939Z,81.10
2019-05-16T08:08:42.314Z,80.80
2019-05-16T08:11:12.326Z,80.80
2019-05-16T08:13:41.872Z,80.20
2019-05-16T08:16:11.389Z,78.90
2019-05-16T08:18:44.947Z,76.30
2019-05-16T08:21:16.647Z,75.30
2019-05-16T08:23:42.818Z,75.00
2019-05-16T08:26:12.164Z,75.90
2019-05-16T08:28:42.178Z,75.60
2019-05-16T08:31:11.932Z,75.50
2019-05-16T08:33:41.761Z,75.20
2019-05-16T08:36:12.082Z,75.00
2019-05-16T08:41:16.882Z,74.60
2019-05-16T08:43:43.812Z,74.00
2019-05-16T08:46:13.511Z,74.20
2019-05-16T08:48:42.889Z,73.40
2019-05-16T08:51:12.496Z,72.50
2019-05-16T08:53:43.259Z,72.50
2019-05-16T08:56:13.383Z,70.90
2019-05-16T08:58:42.792Z,70.40
2019-05-16T09:01:15.481Z,70.60
2019-05-16T09:03:43.376Z,70.10
2019-05-16T09:06:12.738Z,71.70
2019-05-16T09:08:42.139Z,71.10
2019-05-16T09:11:34.030Z,68.80
2019-05-16T09:13:42.880Z,66.20
2019-05-16T09:16:12.186Z,66.40
2019-05-16T09:18:38.235Z,74.20
2019-05-16T09:18:52.129Z,65.20
2019-05-16T09:21:12.637Z,64.50
2019-05-16T09:23:42.041Z,64.50
2019-05-16T09:26:15.835Z,61.60
2019-05-16T09:28:42.548Z,61.50
2019-05-16T09:31:11.982Z,60.90
2019-05-16T09:33:43.568Z,60.90
2019-05-16T09:36:12.916Z,59.20
2019-05-16T09:38:42.266Z,58.20
2019-05-16T09:41:11.570Z,57.60
2019-05-16T09:43:41.044Z,57.70
2019-05-16T09:46:10.446Z,56.70
2019-05-16T09:48:40.220Z,57.30
2019-05-16T09:51:09.568Z,55.00
2019-05-16T09:53:38.953Z,55.30
2019-05-16T09:56:08.486Z,55.40
2019-05-16T09:58:37.749Z,55.60
2019-05-16T10:01:07.158Z,54.50
2019-05-16T10:03:37.270Z,54.10
2019-05-16T10:06:08.102Z,53.30
2019-05-16T10:08:37.646Z,53.80
2019-05-16T10:11:07.052Z,53.30
2019-05-16T10:13:37.538Z,52.90
2019-05-16T10:16:07.461Z,52.60
2019-05-16T10:18:38.186Z,53.20
2019-05-16T10:21:08.355Z,53.30
2019-05-16T10:23:37.778Z,52.10
2019-05-16T10:26:07.108Z,49.50
2019-05-16T10:28:38.406Z,50.50
2019-05-16T10:31:07.335Z,51.20
2019-05-16T10:33:39.028Z,51.10
2019-05-16T10:36:08.386Z,50.90
2019-05-16T10:38:38.033Z,50.70
2019-05-16T10:41:07.451Z,50.70
2019-05-16T10:43:37.153Z,50.80
2019-05-16T10:46:06.687Z,51.00
2019-05-16T10:48:37.610Z,50.80
2019-05-16T10:51:07.765Z,50.40
2019-05-16T10:54:01.002Z,50.50
2019-05-16T10:56:08.363Z,49.20
2019-05-16T10:58:52.016Z,47.90
2019-05-16T11:01:22.202Z,47.90
2019-05-16T11:03:39.677Z,48.10
2019-05-16T11:06:23.333Z,46.60
2019-05-16T11:08:39.961Z,48.10
2019-05-16T11:11:09.231Z,49.10
2019-05-16T11:13:38.618Z,47.40
2019-05-16T11:16:09.600Z,46.80
2019-05-16T11:18:38.905Z,47.30
2019-05-16T11:21:08.210Z,46.70
2019-05-16T11:23:37.546Z,46.40
2019-05-16T11:26:06.793Z,46.60
2019-05-16T11:28:36.983Z,46.10
2019-05-16T11:31:07.612Z,45.30
2019-05-16T11:33:37.285Z,45.50
2019-05-16T11:36:08.166Z,44.20
2019-05-16T11:38:37.973Z,44.60
2019-05-16T11:41:07.596Z,43.70
2019-05-16T11:43:36.957Z,43.80
2019-05-16T11:46:06.239Z,43.30
2019-05-16T11:48:37.663Z,42.00
2019-05-16T11:51:07.319Z,39.80
2019-05-16T11:53:37.820Z,36.50
2019-05-16T11:56:08.301Z,33.00
2019-05-16T11:58:37.886Z,30.00
2019-05-16T12:01:07.779Z,28.00
2019-05-16T12:03:37.533Z,26.10
2019-05-16T12:06:10.470Z,25.00
2019-05-16T12:08:38.055Z,24.40
2019-05-16T12:11:07.336Z,23.50
2019-05-16T12:13:37.006Z,22.50
2019-05-16T12:16:07.646Z,22.30
2019-05-16T12:18:37.449Z,21.90
2019-05-16T12:21:07.633Z,22.00
2019-05-16T12:23:37.586Z,21.90
2019-05-16T12:26:07.820Z,21.70
2019-05-16T12:28:37.386Z,21.40
2019-05-16T12:31:07.197Z,21.10
2019-05-16T12:33:37.382Z,21.10
2019-05-16T12:36:07.745Z,20.80
2019-05-16T12:38:37.940Z,20.70
2019-05-16T12:41:07.898Z,21.50
2019-05-16T12:43:46.246Z,21.50
2019-05-16T12:46:08.075Z,21.80
2019-05-16T12:48:37.663Z,22.30
2019-05-16T12:51:08.288Z,23.40
2019-05-16T12:53:38.262Z,24.10
2019-05-16T12:56:07.519Z,24.70
2019-05-16T12:58:41.936Z,24.10
2019-05-16T13:01:07.982Z,23.50
2019-05-16T13:03:38.029Z,23.60
2019-05-16T13:06:07.403Z,23.00
2019-05-16T13:08:37.535Z,22.70
2019-05-16T13:11:07.429Z,23.40
2019-05-16T13:13:37.510Z,23.20
2019-05-16T13:16:07.742Z,23.10
2019-05-16T13:18:37.183Z,22.60
2019-05-16T13:21:06.966Z,23.40
2019-05-16T13:23:36.270Z,23.50
2019-05-16T13:26:07.397Z,23.20
2019-05-16T13:28:37.862Z,23.50
2019-05-16T13:31:07.871Z,23.90
2019-05-16T13:33:37.286Z,24.20
2019-05-16T13:36:07.548Z,23.90
2019-05-16T13:38:37.181Z,23.20
2019-05-16T13:41:07.488Z,23.30
2019-05-16T13:43:37.568Z,22.70
2019-05-16T13:46:07.354Z,23.20
2019-05-16T13:48:37.769Z,23.30
2019-05-16T13:51:14.851Z,22.80
2019-05-16T13:53:38.212Z,22.40
2019-05-16T13:56:12.975Z,23.10
2019-05-16T13:58:38.597Z,23.20
2019-05-16T14:01:08.132Z,23.80
2019-05-16T14:03:37.598Z,24.30
2019-05-16T14:06:07.323Z,24.80
2019-05-16T14:08:37.508Z,23.90
2019-05-16T14:11:09.876Z,23.70
2019-05-16T14:13:37.888Z,24.00
2019-05-16T14:16:07.540Z,25.30
2019-05-16T14:18:37.814Z,25.90
2019-05-16T14:21:07.388Z,25.30
2019-05-16T14:23:38.121Z,24.70
2019-05-16T14:26:07.684Z,24.20
2019-05-16T14:28:37.743Z,24.10
2019-05-16T14:31:07.564Z,24.60
2019-05-16T14:33:37.057Z,24.40
2019-05-16T14:36:07.433Z,25.80
2019-05-16T14:38:37.551Z,26.30
2019-05-16T14:41:08.050Z,26.20
2019-05-16T14:43:37.716Z,26.70
2019-05-16T14:46:09.589Z,26.00
2019-05-16T14:48:38.227Z,25.30
2019-05-16T14:51:07.641Z,25.20
2019-05-16T14:53:37.945Z,24.30
2019-05-16T14:56:07.596Z,23.50
2019-05-16T14:58:38.075Z,23.20
2019-05-16T15:01:07.769Z,22.50
2019-05-16T15:03:37.202Z,23.20
2019-05-16T15:06:08.499Z,25.40
2019-05-16T15:08:37.697Z,26.90
2019-05-16T15:11:07.624Z,27.10
2019-05-16T15:13:37.176Z,26.50
2019-05-16T15:16:07.622Z,25.50
2019-05-16T15:18:38.636Z,26.20
2019-05-16T15:21:08.694Z,27.90
2019-05-16T15:23:38.529Z,29.30
2019-05-16T15:26:09.448Z,31.10
2019-05-16T15:28:38.973Z,32.90
2019-05-16T15:31:08.452Z,31.90
2019-05-16T15:33:37.952Z,29.30
2019-05-16T15:36:08.603Z,27.60
2019-05-16T15:38:38.278Z,25.60
2019-05-16T15:41:08.173Z,25.10
2019-05-16T15:43:37.892Z,24.30
2019-05-16T15:46:08.567Z,23.40
2019-05-16T15:48:38.152Z,23.20
2019-05-16T15:51:09.000Z,23.60
2019-05-16T15:53:39.303Z,23.60
2019-05-16T15:56:10.452Z,23.80
2019-05-16T15:58:39.787Z,23.40
2019-05-16T16:01:09.154Z,23.40
2019-05-16T16:03:38.566Z,23.50
2019-05-16T16:06:08.005Z,23.10
2019-05-16T16:08:37.640Z,23.20
2019-05-16T16:11:07.595Z,23.80
2019-05-16T16:13:37.657Z,24.80
2019-05-16T16:16:10.041Z,25.80
2019-05-16T16:18:38.401Z,26.80
2019-05-16T16:21:07.853Z,27.70
2019-05-16T16:23:37.500Z,28.90
2019-05-16T16:26:07.476Z,29.90
2019-05-16T16:28:38.155Z,30.70
2019-05-16T16:31:07.877Z,30.60
2019-05-16T16:33:37.656Z,29.70
2019-05-16T16:36:07.837Z,28.50
2019-05-16T16:38:37.429Z,28.10
2019-05-16T16:41:08.162Z,28.60
2019-05-16T16:43:37.637Z,29.40
2019-05-16T16:46:12.570Z,29.70
2019-05-16T16:48:38.403Z,30.00
2019-05-16T16:51:07.777Z,29.90
2019-05-16T16:53:37.951Z,29.70
2019-05-16T16:56:07.753Z,30.00
2019-05-16T16:58:37.374Z,29.90
2019-05-16T17:01:07.462Z,29.60
2019-05-16T17:03:36.842Z,29.20
2019-05-16T17:06:06.504Z,29.40
2019-05-16T17:08:37.368Z,29.40
2019-05-16T17:11:07.837Z,29.60
2019-05-16T17:13:37.312Z,28.70
2019-05-16T17:16:21.202Z,28.20
2019-05-16T17:18:37.915Z,28.50
2019-05-16T17:21:07.858Z,28.00
2019-05-16T17:23:37.686Z,29.10
2019-05-16T17:26:07.509Z,29.80
2019-05-16T17:28:37.505Z,30.60
2019-05-16T17:31:07.317Z,31.70
2019-05-16T17:33:38.193Z,32.20
2019-05-16T17:36:09.127Z,31.70
2019-05-16T17:38:38.832Z,31.50
2019-05-16T17:41:12.601Z,31.60
2019-05-16T17:43:42.246Z,32.40
2019-05-16T17:46:11.574Z,32.70
2019-05-16T17:48:40.881Z,33.00
2019-05-16T17:51:16.859Z,33.80
2019-05-16T17:53:44.558Z,32.50
2019-05-16T17:56:13.944Z,34.40
2019-05-16T17:58:46.509Z,36.40
2019-05-16T18:01:17.099Z,38.00
2019-05-16T18:03:46.663Z,39.50
2019-05-16T18:06:16.985Z,42.20
2019-05-16T18:08:46.957Z,44.10
2019-05-16T18:11:19.769Z,45.30
2019-05-16T18:13:49.179Z,46.50
2019-05-16T18:16:18.559Z,47.50
2019-05-16T18:18:49.168Z,48.20
2019-05-16T18:21:59.970Z,49.00
2019-05-16T18:24:41.301Z,49.30
2019-05-16T18:28:17.575Z,49.50
2019-05-16T18:31:07.551Z,49.70
2019-05-16T18:33:37.348Z,50.10
2019-05-16T18:36:07.738Z,50.40
2019-05-16T18:38:37.550Z,50.80
2019-05-16T18:41:09.835Z,51.30
2019-05-16T18:43:43.704Z,52.80
2019-05-16T18:46:16.172Z,54.80
2019-05-16T18:48:46.986Z,56.60
2019-05-16T18:51:19.024Z,58.20
2019-05-16T18:53:48.838Z,59.30
2019-05-16T18:56:23.507Z,60.50
2019-05-16T18:58:52.511Z,61.70
2019-05-16T19:01:23.483Z,63.00
2019-05-16T19:03:53.002Z,65.30
2019-05-16T19:06:23.754Z,67.80
2019-05-16T19:08:53.026Z,70.90
2019-05-16T19:11:22.677Z,74.60
2019-05-16T19:13:53.784Z,77.70
2019-05-16T19:16:23.280Z,80.30
2019-05-16T19:18:52.629Z,82.50
2019-05-16T19:21:21.991Z,83.80
2019-05-16T19:23:51.654Z,85.00
2019-05-16T19:26:21.387Z,85.50
2019-05-16T19:28:51.137Z,86.20
2019-05-16T19:31:22.121Z,87.60
2019-05-16T19:33:52.008Z,88.70
2019-05-16T19:36:21.304Z,90.10
2019-05-16T19:38:56.992Z,90.40
2019-05-16T19:41:24.809Z,90.90
2019-05-16T19:43:54.434Z,91.30
2019-05-16T19:46:23.875Z,91.70
2019-05-16T19:48:57.029Z,91.90
2019-05-16T19:54:27.109Z,92.40
2019-05-16T20:04:24.273Z,93.70
2019-05-16T20:07:07.410Z,94.20
2019-05-16T20:09:38.202Z,94.10
2019-05-16T20:12:07.867Z,94.30
2019-05-16T20:14:37.558Z,94.40
2019-05-16T20:17:07.430Z,94.60
2019-05-16T20:19:56.253Z,94.70
2019-05-16T20:23:03.074Z,94.90
2019-05-16T20:25:53.162Z,95.10
2019-05-16T20:29:21.229Z,95.40
2019-05-16T20:32:55.414Z,95.60
2019-05-16T20:39:08.530Z,95.90
2019-05-16T20:41:43.516Z,95.90
2019-05-16T20:44:12.909Z,95.90
2019-05-16T20:46:46.775Z,96.20
2019-05-16T20:49:16.863Z,96.30
2019-05-16T20:51:46.700Z,96.60
2019-05-16T20:54:17.485Z,96.60
2019-05-16T20:56:49.555Z,96.60
2019-05-16T20:59:21.158Z,96.70
2019-05-16T21:01:53.251Z,96.70
2019-05-16T21:04:28.357Z,96.90
2019-05-16T21:07:05.752Z,97.40
2019-05-16T21:09:45.556Z,97.20
2019-05-16T21:12:17.241Z,97.30
2019-05-16T21:15:01.751Z,97.40
2019-05-16T21:17:31.314Z,97.60
2019-05-16T21:20:00.890Z,97.60
2019-05-16T21:22:30.346Z,97.50
2019-05-16T21:25:00.335Z,97.60
2019-05-16T21:27:29.799Z,97.70
2019-05-16T21:29:59.184Z,97.70
2019-05-16T21:32:28.661Z,97.60
2019-05-16T21:34:58.109Z,97.60
2019-05-16T21:37:27.571Z,97.60
2019-05-16T21:39:59.735Z,97.70
2019-05-16T21:42:28.190Z,97.70
2019-05-16T21:44:57.695Z,97.80
2019-05-16T21:47:27.682Z,97.70
2019-05-16T21:49:57.152Z,97.50
2019-05-16T21:52:28.748Z,97.40
2019-05-16T21:54:57.788Z,97.30
2019-05-16T21:57:27.201Z,97.30
2019-05-16T21:59:57.111Z,97.20
2019-05-16T22:02:26.724Z,97.20
2019-05-16T22:04:56.881Z,97.10
2019-05-16T22:07:33.155Z,96.80
2019-05-16T22:09:57.180Z,96.60
2019-05-16T22:12:26.678Z,96.40
2019-05-16T22:14:57.154Z,96.30
2019-05-16T22:17:27.518Z,96.20
2019-05-16T22:19:57.756Z,96.10
2019-05-16T22:22:29.833Z,96.00
2019-05-16T22:24:58.113Z,96.10
2019-05-16T22:27:27.385Z,96.10
2019-05-16T22:29:56.861Z,96.20
2019-05-16T22:32:27.180Z,96.20
2019-05-16T22:34:56.982Z,96.10
2019-05-16T22:37:27.469Z,96.00
2019-05-16T22:39:59.528Z,96.10
2019-05-16T22:42:27.734Z,96.00
2019-05-16T22:44:57.005Z,96.10
2019-05-16T22:47:26.693Z,96.20
2019-05-16T22:49:56.718Z,96.20
2019-05-16T22:52:26.540Z,96.30
2019-05-16T22:54:56.729Z,96.30
2019-05-16T22:57:26.904Z,96.30
2019-05-16T22:59:56.960Z,96.40
2019-05-16T23:02:27.445Z,96.40
2019-05-16T23:04:56.798Z,96.50
2019-05-16T23:07:27.448Z,96.50
2019-05-16T23:09:56.793Z,96.50
2019-05-16T23:12:26.659Z,96.50
2019-05-16T23:14:56.926Z,96.50
2019-05-16T23:17:26.823Z,96.50
2019-05-16T23:19:56.817Z,96.50
2019-05-16T23:22:27.373Z,96.70
2019-05-16T23:24:57.078Z,96.80
2019-05-16T23:27:27.293Z,97.00
2019-05-16T23:29:56.896Z,97.10
2019-05-16T23:32:27.091Z,97.10
2019-05-16T23:34:57.256Z,97.10
2019-05-16T23:37:27.423Z,97.10
2019-05-16T23:39:56.889Z,97.10
2019-05-16T23:42:26.446Z,97.10
2019-05-16T23:44:56.701Z,97.10
2019-05-16T23:47:26.202Z,97.00
2019-05-16T23:49:56.815Z,96.80
2019-05-16T23:52:27.343Z,96.80
2019-05-16T23:54:57.022Z,96.80
2019-05-16T23:57:26.695Z,96.80
2019-05-16T23:59:56.750Z,96.90
